Time;durP1;ratioP1;P1;durP2;ratioP2;P2;SDS_P1;SDS_P2;PMS_P1;PMS_P2;Temp;Humidity;BMP_temperature;BMP_pressure;BME280_temperature;BME280_humidity;BME280_pressure;Samples;Min_cycle;Max_cycle;Signal;HPM_P1;HPM_P2
2023/09/25 00:01:30;;;;;;;5.32;3.90;;;;;;;;;;5150054;27;20498;-75
2023/09/25 00:03:56;;;;;;;6.43;3.80;;;;;;;;;;5124961;27;20031;-75
2023/09/25 00:06:22;;;;;;;6.88;4.22;;;;;;;;;;5138009;27;20042;-75
2023/09/25 00:08:48;;;;;;;4.95;3.60;;;;;;;;;;5123029;27;20043;-75
2023/09/25 00:11:14;;;;;;;4.72;3.83;;;;;;;;;;5152074;27;20050;-75
2023/09/25 00:13:43;;;;;;;6.22;4.00;;;;;;;;;;5147314;27;20067;-75
2023/09/25 00:16:13;;;;;;;5.43;3.95;;;;;;;;;;5117241;27;20139;-75
2023/09/25 00:18:39;;;;;;;4.38;3.75;;;;;;;;;;5138805;27;20079;-75
2023/09/25 00:21:08;;;;;;;5.53;3.70;;;;;;;;;;5133763;27;20047;-75
2023/09/25 00:23:34;;;;;;;4.68;4.10;;;;;;;;;;5133567;27;20046;-75
2023/09/25 00:26:03;;;;;;;6.03;3.70;;;;;;;;;;5148228;27;20143;-75
2023/09/25 00:28:29;;;;;;;7.18;4.07;;;;;;;;;;5138529;27;20043;-75
2023/09/25 00:30:55;;;;;;;5.72;3.80;;;;;;;;;;5137743;27;20043;-74
2023/09/25 00:33:21;;;;;;;5.18;3.95;;;;;;;;;;5147267;27;20051;-75
2023/09/25 00:35:47;;;;;;;4.05;3.55;;;;;;;;;;5142326;27;20397;-75
2023/09/25 00:38:14;;;;;;;5.57;3.72;;;;;;;;;;5141210;27;20046;-75
2023/09/25 00:40:40;;;;;;;4.40;3.50;;;;;;;;;;5127908;27;20094;-75
2023/09/25 00:43:06;;;;;;;4.60;3.53;;;;;;;;;;5128562;27;20047;-75
2023/09/25 00:45:37;;;;;;;7.40;3.97;;;;;;;;;;5148265;27;20050;-75
2023/09/25 00:48:03;;;;;;;5.13;3.50;;;;;;;;;;5134976;27;20086;-75
2023/09/25 00:50:30;;;;;;;4.22;3.83;;;;;;;;;;5125582;27;20054;-75
2023/09/25 00:52:57;;;;;;;5.63;3.70;;;;;;;;;;5147541;27;20168;-75
2023/09/25 00:55:23;;;;;;;5.93;3.63;;;;;;;;;;5133356;27;20406;-75
2023/09/25 00:57:49;;;;;;;4.43;3.38;;;;;;;;;;5129758;27;20485;-75
2023/09/25 01:00:17;;;;;;;5.65;3.85;;;;;;;;;;5125727;27;20120;-75
2023/09/25 01:02:43;;;;;;;6.05;3.50;;;;;;;;;;5147573;27;20450;-75
2023/09/25 01:05:10;;;;;;;6.68;3.70;;;;;;;;;;5125232;27;20563;-75
2023/09/25 01:07:39;;;;;;;5.20;3.53;;;;;;;;;;5139269;27;20042;-75
2023/09/25 01:10:14;;;;;;;5.28;3.65;;;;;;;;;;5115399;27;20091;-75
2023/09/25 01:12:40;;;;;;;3.92;3.63;;;;;;;;;;5119891;27;20398;-75
2023/09/25 01:15:06;;;;;;;6.22;3.40;;;;;;;;;;5123509;27;20035;-75
2023/09/25 01:17:32;;;;;;;4.90;3.50;;;;;;;;;;5132397;27;20042;-75
2023/09/25 01:19:59;;;;;;;4.97;3.60;;;;;;;;;;5142813;27;20047;-75
2023/09/25 01:22:25;;;;;;;5.63;3.63;;;;;;;;;;5128767;27;20168;-75
2023/09/25 01:24:51;;;;;;;4.00;3.60;;;;;;;;;;5129893;27;20054;-75
2023/09/25 01:27:17;;;;;;;4.50;3.53;;;;;;;;;;5131371;27;20042;-75
2023/09/25 01:29:43;;;;;;;3.90;3.45;;;;;;;;;;5137523;27;20497;-75
2023/09/25 01:32:09;;;;;;;3.92;3.50;;;;;;;;;;5127896;27;20049;-75
2023/09/25 01:34:35;;;;;;;5.32;3.55;;;;;;;;;;5128660;27;20125;-75
2023/09/25 01:37:04;;;;;;;4.72;3.40;;;;;;;;;;5132478;27;20050;-75
2023/09/25 01:39:31;;;;;;;3.78;3.45;;;;;;;;;;5121574;27;20035;-75
2023/09/25 01:41:57;;;;;;;5.05;3.67;;;;;;;;;;5140117;27;20074;-75
2023/09/25 01:44:25;;;;;;;4.88;3.40;;;;;;;;;;5123766;27;20074;-75
2023/09/25 01:46:51;;;;;;;6.70;3.78;;;;;;;;;;5134455;27;20494;-75
2023/09/25 01:49:17;;;;;;;5.07;3.45;;;;;;;;;;5129423;27;20051;-75
2023/09/25 01:51:44;;;;;;;5.07;3.60;;;;;;;;;;5126278;27;20130;-75
2023/09/25 01:54:13;;;;;;;5.80;3.72;;;;;;;;;;5124568;27;20098;-75
2023/09/25 01:56:39;;;;;;;6.20;3.30;;;;;;;;;;5131059;27;20071;-75
2023/09/25 01:59:05;;;;;;;4.07;3.50;;;;;;;;;;5150951;27;20055;-75
2023/09/25 02:01:31;;;;;;;5.57;3.75;;;;;;;;;;5125971;27;20056;-75
2023/09/25 02:03:57;;;;;;;6.07;3.90;;;;;;;;;;5124172;27;20101;-75
2023/09/25 02:06:23;;;;;;;4.13;3.67;;;;;;;;;;5132394;27;20163;-75
2023/09/25 02:08:49;;;;;;;3.97;3.65;;;;;;;;;;5128979;27;20069;-75
2023/09/25 02:11:15;;;;;;;4.60;3.67;;;;;;;;;;5138091;27;20050;-75
2023/09/25 02:13:41;;;;;;;4.43;4.03;;;;;;;;;;5123257;27;20058;-75
2023/09/25 02:16:07;;;;;;;4.85;3.63;;;;;;;;;;5123618;27;20107;-75
2023/09/25 02:18:33;;;;;;;4.03;3.53;;;;;;;;;;5137686;27;20494;-75
2023/09/25 02:20:59;;;;;;;6.05;3.90;;;;;;;;;;5111799;28;20051;-75
2023/09/25 02:23:25;;;;;;;4.07;3.55;;;;;;;;;;5142785;27;20481;-75
2023/09/25 02:25:51;;;;;;;4.00;3.50;;;;;;;;;;5130397;27;20045;-75
2023/09/25 02:28:17;;;;;;;4.55;3.53;;;;;;;;;;5136966;27;20039;-75
2023/09/25 02:30:43;;;;;;;5.18;3.72;;;;;;;;;;5127688;27;20371;-75
2023/09/25 02:33:09;;;;;;;5.22;3.80;;;;;;;;;;5121219;27;20387;-75
2023/09/25 02:35:36;;;;;;;5.50;3.67;;;;;;;;;;5130275;27;20473;-75
2023/09/25 02:38:03;;;;;;;5.80;3.85;;;;;;;;;;5143660;27;20043;-75
2023/09/25 02:40:29;;;;;;;5.05;3.83;;;;;;;;;;5145148;27;20043;-75
2023/09/25 02:42:55;;;;;;;8.55;3.90;;;;;;;;;;5130755;27;20414;-75
2023/09/25 02:45:21;;;;;;;4.47;4.00;;;;;;;;;;5129690;27;20445;-75
2023/09/25 02:47:47;;;;;;;5.00;4.07;;;;;;;;;;5130694;27;20374;-75
2023/09/25 02:50:13;;;;;;;6.32;4.22;;;;;;;;;;5131999;27;20060;-75
2023/09/25 02:52:39;;;;;;;6.53;4.07;;;;;;;;;;5130162;27;20409;-75
2023/09/25 02:55:05;;;;;;;5.25;3.92;;;;;;;;;;5128302;27;20042;-75
2023/09/25 02:57:31;;;;;;;4.40;4.00;;;;;;;;;;5145954;27;20485;-75
2023/09/25 02:59:57;;;;;;;6.95;4.35;;;;;;;;;;5128480;27;20046;-75
2023/09/25 03:02:25;;;;;;;5.57;4.15;;;;;;;;;;5129824;28;20079;-75
2023/09/25 03:04:51;;;;;;;7.47;4.03;;;;;;;;;;5133841;27;20062;-75
2023/09/25 03:07:18;;;;;;;6.35;4.22;;;;;;;;;;5131626;27;20118;-75
2023/09/25 03:09:44;;;;;;;5.22;4.40;;;;;;;;;;5122744;27;20570;-75
2023/09/25 03:12:10;;;;;;;6.43;3.75;;;;;;;;;;5132486;27;20129;-75
2023/09/25 03:14:36;;;;;;;6.45;3.90;;;;;;;;;;5146233;27;20050;-75
2023/09/25 03:17:02;;;;;;;6.00;3.60;;;;;;;;;;5116817;27;20046;-75
2023/09/25 03:19:31;;;;;;;4.95;3.92;;;;;;;;;;5125516;27;20569;-75
2023/09/25 03:21:57;;;;;;;5.22;3.60;;;;;;;;;;5120012;27;20089;-74
2023/09/25 03:24:23;;;;;;;4.88;4.18;;;;;;;;;;5122747;27;20115;-75
2023/09/25 03:26:50;;;;;;;4.72;3.78;;;;;;;;;;5118304;27;20482;-75
2023/09/25 03:29:16;;;;;;;4.68;3.75;;;;;;;;;;5130090;27;21634;-75
2023/09/25 03:31:42;;;;;;;7.95;3.95;;;;;;;;;;5130465;27;20047;-75
2023/09/25 03:34:08;;;;;;;4.13;3.70;;;;;;;;;;5119403;27;20455;-75
2023/09/25 03:36:34;;;;;;;5.80;3.47;;;;;;;;;;5126347;27;20047;-75
2023/09/25 03:39:00;;;;;;;6.20;4.00;;;;;;;;;;5130687;27;20473;-75
2023/09/25 03:41:26;;;;;;;6.07;4.03;;;;;;;;;;5119873;27;20070;-75
2023/09/25 03:43:55;;;;;;;5.32;3.80;;;;;;;;;;5137602;27;20564;-75
2023/09/25 03:46:21;;;;;;;4.88;3.60;;;;;;;;;;5114485;27;20080;-75
2023/09/25 03:48:47;;;;;;;4.68;3.60;;;;;;;;;;5125928;27;20054;-75
2023/09/25 03:51:13;;;;;;;5.15;3.88;;;;;;;;;;5129047;27;20088;-75
2023/09/25 03:53:39;;;;;;;5.93;3.45;;;;;;;;;;5118998;27;20034;-75
2023/09/25 03:56:05;;;;;;;6.70;3.75;;;;;;;;;;5110641;27;20043;-75
2023/09/25 03:58:32;;;;;;;4.10;3.55;;;;;;;;;;5147686;27;20077;-75
2023/09/25 04:00:58;;;;;;;6.45;3.97;;;;;;;;;;5137692;27;20042;-75
2023/09/25 04:03:24;;;;;;;4.85;3.58;;;;;;;;;;5133635;27;20034;-75
2023/09/25 04:05:50;;;;;;;4.55;3.60;;;;;;;;;;5128756;27;20053;-75
2023/09/25 04:08:16;;;;;;;5.97;3.05;;;;;;;;;;5132548;27;20043;-74
2023/09/25 04:10:43;;;;;;;4.93;3.50;;;;;;;;;;5129666;27;20038;-75
2023/09/25 04:13:10;;;;;;;4.43;3.45;;;;;;;;;;5126938;27;20043;-75
2023/09/25 04:15:37;;;;;;;4.50;3.50;;;;;;;;;;5129216;27;20042;-75
2023/09/25 04:18:06;;;;;;;5.13;3.65;;;;;;;;;;5146237;27;20063;-75
2023/09/25 04:20:33;;;;;;;5.88;3.85;;;;;;;;;;5110730;27;20046;-75
2023/09/25 04:22:59;;;;;;;5.43;3.70;;;;;;;;;;5109039;27;20047;-75
2023/09/25 04:25:27;;;;;;;4.72;3.35;;;;;;;;;;5126800;27;20054;-75
2023/09/25 04:27:54;;;;;;;5.78;3.65;;;;;;;;;;5128881;27;20123;-75
2023/09/25 04:30:21;;;;;;;4.55;3.67;;;;;;;;;;5134181;27;20041;-75
2023/09/25 04:32:53;;;;;;;7.15;3.78;;;;;;;;;;5107244;27;20047;-75
2023/09/25 04:35:20;;;;;;;4.70;3.75;;;;;;;;;;5149714;27;20062;-75
2023/09/25 04:37:46;;;;;;;6.32;3.50;;;;;;;;;;5143678;27;20035;-75
2023/09/25 04:40:30;;;;;;;5.70;3.85;;;;;;;;;;5146512;27;20046;-75
2023/09/25 04:43:00;;;;;;;5.32;3.97;;;;;;;;;;5127828;27;20034;-74
2023/09/25 04:45:26;;;;;;;4.70;3.42;;;;;;;;;;5114784;27;20047;-75
2023/09/25 04:47:53;;;;;;;3.97;3.58;;;;;;;;;;5119912;27;20147;-75
2023/09/25 04:50:19;;;;;;;4.63;3.20;;;;;;;;;;5153279;27;20091;-75
2023/09/25 04:52:45;;;;;;;4.80;3.58;;;;;;;;;;5134689;27;20138;-74
2023/09/25 04:55:12;;;;;;;6.00;3.80;;;;;;;;;;5131429;27;20110;-75
2023/09/25 04:57:42;;;;;;;3.92;3.30;;;;;;;;;;5111803;27;20074;-75
2023/09/25 05:00:32;;;;;;;5.95;4.40;;;;;;;;;;5132829;27;20383;-75
2023/09/25 05:02:56;;;;;;;4.47;3.33;;;;;;;;;;5123749;27;20047;-74
2023/09/25 05:05:23;;;;;;;7.88;4.03;;;;;;;;;;5128852;27;20119;-75
2023/09/25 05:07:50;;;;;;;4.07;3.38;;;;;;;;;;5151760;27;20386;-75
2023/09/25 05:10:26;;;;;;;4.57;3.05;;;;;;;;;;5125982;27;20126;-75
2023/09/25 05:12:53;;;;;;;4.88;3.53;;;;;;;;;;5128035;27;20047;-75
2023/09/25 05:15:20;;;;;;;4.43;3.30;;;;;;;;;;5129560;27;20039;-75
2023/09/25 05:17:46;;;;;;;5.07;3.40;;;;;;;;;;5150426;27;20038;-74
2023/09/25 05:20:15;;;;;;;6.68;3.53;;;;;;;;;;5131146;27;20519;-75
2023/09/25 05:22:43;;;;;;;6.97;3.45;;;;;;;;;;5129250;27;20050;-75
2023/09/25 05:25:09;;;;;;;5.13;3.88;;;;;;;;;;5153452;27;20099;-75
2023/09/25 05:27:36;;;;;;;4.40;3.22;;;;;;;;;;5128276;27;20031;-74
2023/09/25 05:30:03;;;;;;;4.93;3.67;;;;;;;;;;5127167;27;20086;-75
2023/09/25 05:32:28;;;;;;;4.55;3.50;;;;;;;;;;5124046;27;20130;-75
2023/09/25 05:34:54;;;;;;;6.75;3.60;;;;;;;;;;5125483;27;20141;-75
2023/09/25 05:37:20;;;;;;;5.95;3.50;;;;;;;;;;5131537;27;20051;-75
2023/09/25 05:39:46;;;;;;;5.32;3.63;;;;;;;;;;5149078;27;20040;-75
2023/09/25 05:42:12;;;;;;;5.80;4.00;;;;;;;;;;5121799;27;20073;-75
2023/09/25 05:44:38;;;;;;;4.93;3.55;;;;;;;;;;5118845;27;20099;-74
2023/09/25 05:47:04;;;;;;;6.13;3.67;;;;;;;;;;5118631;27;20095;-75
2023/09/25 05:49:30;;;;;;;4.03;2.95;;;;;;;;;;5125299;27;20050;-75
2023/09/25 05:51:57;;;;;;;5.00;3.30;;;;;;;;;;5118133;27;20496;-75
2023/09/25 05:54:23;;;;;;;5.55;3.42;;;;;;;;;;5129810;27;20038;-75
2023/09/25 05:56:53;;;;;;;4.00;3.35;;;;;;;;;;5129500;27;20053;-75
2023/09/25 05:59:19;;;;;;;4.88;3.50;;;;;;;;;;5149427;27;20057;-75
2023/09/25 06:01:45;;;;;;;4.72;3.40;;;;;;;;;;5134617;27;20454;-75
2023/09/25 06:04:15;;;;;;;7.43;3.30;;;;;;;;;;5147814;27;20056;-75
2023/09/25 06:06:41;;;;;;;5.72;3.67;;;;;;;;;;5128554;27;20058;-75
2023/09/25 06:09:09;;;;;;;4.22;3.40;;;;;;;;;;5132879;27;20129;-75
2023/09/25 06:11:39;;;;;;;5.38;3.50;;;;;;;;;;5119732;27;20516;-75
2023/09/25 06:14:05;;;;;;;7.50;3.55;;;;;;;;;;5144378;27;20098;-74
2023/09/25 06:16:31;;;;;;;5.90;3.83;;;;;;;;;;5143645;27;20042;-75
2023/09/25 06:18:57;;;;;;;5.60;3.65;;;;;;;;;;5122301;27;20099;-74
2023/09/25 06:21:24;;;;;;;6.00;3.70;;;;;;;;;;5133414;27;20078;-75
2023/09/25 06:23:50;;;;;;;4.90;3.40;;;;;;;;;;5143895;27;20367;-75
2023/09/25 06:26:16;;;;;;;4.78;3.70;;;;;;;;;;5149782;27;20039;-75
2023/09/25 06:28:42;;;;;;;5.68;3.40;;;;;;;;;;5129427;27;20047;-75
2023/09/25 06:31:08;;;;;;;5.10;3.58;;;;;;;;;;5126635;27;20061;-75
2023/09/25 06:33:35;;;;;;;4.65;3.83;;;;;;;;;;5125114;27;20047;-75
2023/09/25 06:36:01;;;;;;;6.70;3.42;;;;;;;;;;5119255;27;20508;-75
2023/09/25 06:38:27;;;;;;;4.20;3.30;;;;;;;;;;5129768;27;20043;-74
2023/09/25 06:40:53;;;;;;;4.10;3.55;;;;;;;;;;5114718;27;20146;-75
2023/09/25 06:43:19;;;;;;;3.53;3.22;;;;;;;;;;5140709;27;20046;-75
2023/09/25 06:45:45;;;;;;;6.10;3.58;;;;;;;;;;5134203;27;20046;-75
2023/09/25 06:48:11;;;;;;;4.60;3.38;;;;;;;;;;5127104;27;20047;-75
2023/09/25 06:50:37;;;;;;;6.22;3.80;;;;;;;;;;5134471;27;20036;-75
2023/09/25 06:53:03;;;;;;;4.93;3.28;;;;;;;;;;5130733;27;20043;-76
2023/09/25 06:55:30;;;;;;;4.43;3.20;;;;;;;;;;5132932;27;20043;-75
2023/09/25 06:57:59;;;;;;;6.38;3.75;;;;;;;;;;5121345;27;20126;-77
2023/09/25 07:00:25;;;;;;;4.78;3.63;;;;;;;;;;5125884;27;20043;-74
2023/09/25 07:02:52;;;;;;;7.03;3.63;;;;;;;;;;5126172;27;20043;-75
2023/09/25 07:05:18;;;;;;;4.72;3.38;;;;;;;;;;5125712;27;20199;-75
2023/09/25 07:07:47;;;;;;;5.93;3.67;;;;;;;;;;5125653;27;20046;-75
2023/09/25 07:10:13;;;;;;;5.13;3.72;;;;;;;;;;5127160;27;20051;-75
2023/09/25 07:12:40;;;;;;;5.15;3.53;;;;;;;;;;5126649;27;20473;-75
2023/09/25 07:15:06;;;;;;;7.00;4.00;;;;;;;;;;5145227;27;20050;-75
2023/09/25 07:17:32;;;;;;;6.70;3.70;;;;;;;;;;5127850;27;20073;-75
2023/09/25 07:19:59;;;;;;;5.38;3.50;;;;;;;;;;5146801;27;20051;-75
2023/09/25 07:22:31;;;;;;;5.07;3.75;;;;;;;;;;5141915;27;20142;-75
2023/09/25 07:24:57;;;;;;;6.28;3.70;;;;;;;;;;5123561;27;20477;-75
2023/09/25 07:27:23;;;;;;;4.68;3.40;;;;;;;;;;5125214;27;20056;-75
2023/09/25 07:29:49;;;;;;;5.53;3.72;;;;;;;;;;5134130;27;20042;-78
2023/09/25 07:32:16;;;;;;;5.90;3.75;;;;;;;;;;5123006;27;20046;-75
2023/09/25 07:34:45;;;;;;;3.97;3.10;;;;;;;;;;5130660;27;20091;-75
2023/09/25 07:37:12;;;;;;;5.78;3.45;;;;;;;;;;5125651;27;20589;-75
2023/09/25 07:39:40;;;;;;;5.72;3.75;;;;;;;;;;5126906;27;20126;-75
2023/09/25 07:42:09;;;;;;;4.43;3.25;;;;;;;;;;5130566;27;20550;-74
2023/09/25 07:44:36;;;;;;;5.32;3.65;;;;;;;;;;5137747;27;20046;-75
2023/09/25 07:47:06;;;;;;;6.65;3.78;;;;;;;;;;5133380;27;20470;-75
2023/09/25 07:49:44;;;;;;;5.57;3.53;;;;;;;;;;5131743;27;20046;-75
2023/09/25 07:52:18;;;;;;;4.82;3.63;;;;;;;;;;5134038;27;20146;-75
2023/09/25 07:54:45;;;;;;;5.53;3.85;;;;;;;;;;5149698;27;20486;-75
2023/09/25 07:57:29;;;;;;;4.82;3.40;;;;;;;;;;5133797;27;20042;-75
2023/09/25 07:59:55;;;;;;;4.70;3.47;;;;;;;;;;5131127;27;20163;-75
2023/09/25 08:02:23;;;;;;;4.78;3.50;;;;;;;;;;5120370;27;20071;-76
2023/09/25 08:04:49;;;;;;;4.80;3.78;;;;;;;;;;5126425;27;20046;-74
2023/09/25 08:07:15;;;;;;;4.50;3.47;;;;;;;;;;5148701;27;20397;-74
2023/09/25 08:09:44;;;;;;;6.80;3.80;;;;;;;;;;5154665;27;20046;-75
2023/09/25 08:12:10;;;;;;;5.75;3.58;;;;;;;;;;5131372;27;20045;-75
2023/09/25 08:14:36;;;;;;;5.70;3.90;;;;;;;;;;5128317;27;20141;-74
2023/09/25 08:17:02;;;;;;;4.90;3.60;;;;;;;;;;5136190;27;20130;-74
2023/09/25 08:19:28;;;;;;;5.65;3.42;;;;;;;;;;5137057;27;20072;-74
2023/09/25 08:21:54;;;;;;;4.28;3.50;;;;;;;;;;5152193;27;20568;-74
2023/09/25 08:24:20;;;;;;;5.18;3.15;;;;;;;;;;5133466;27;20155;-74
2023/09/25 08:26:46;;;;;;;7.50;3.55;;;;;;;;;;5135922;27;20050;-74
2023/09/25 08:29:16;;;;;;;9.07;3.78;;;;;;;;;;5137107;27;20055;-75
2023/09/25 08:31:46;;;;;;;4.55;3.30;;;;;;;;;;5134527;27;20405;-74
2023/09/25 08:34:12;;;;;;;4.25;3.42;;;;;;;;;;5136092;27;20047;-74
2023/09/25 08:36:39;;;;;;;5.75;3.50;;;;;;;;;;5134145;27;20474;-75
2023/09/25 08:39:06;;;;;;;6.90;3.58;;;;;;;;;;5123805;27;20050;-75
2023/09/25 08:41:32;;;;;;;8.35;3.67;;;;;;;;;;5132658;27;20053;-74
2023/09/25 08:43:58;;;;;;;6.22;3.78;;;;;;;;;;5135249;27;20439;-74
2023/09/25 08:46:25;;;;;;;4.13;3.42;;;;;;;;;;5153618;27;20058;-75
2023/09/25 08:48:56;;;;;;;5.50;3.70;;;;;;;;;;5136732;27;20055;-75
2023/09/25 08:51:23;;;;;;;6.82;3.60;;;;;;;;;;5130823;27;20387;-74
2023/09/25 08:53:49;;;;;;;6.40;3.63;;;;;;;;;;5129419;27;20483;-74
2023/09/25 08:56:16;;;;;;;5.57;3.58;;;;;;;;;;5133483;27;20042;-74
2023/09/25 08:58:43;;;;;;;6.97;3.70;;;;;;;;;;5150867;27;20068;-74
2023/09/25 09:01:09;;;;;;;4.70;3.63;;;;;;;;;;5134277;27;20047;-74
2023/09/25 09:03:36;;;;;;;6.43;3.88;;;;;;;;;;5149380;27;20092;-74
2023/09/25 09:06:03;;;;;;;5.32;3.67;;;;;;;;;;5135844;27;20061;-74
2023/09/25 09:08:30;;;;;;;6.53;3.47;;;;;;;;;;5146017;27;20051;-74
2023/09/25 09:10:56;;;;;;;6.03;3.70;;;;;;;;;;5135904;27;20042;-74
2023/09/25 09:13:22;;;;;;;6.45;3.55;;;;;;;;;;5135340;27;20053;-74
2023/09/25 09:15:49;;;;;;;6.60;3.67;;;;;;;;;;5152318;27;20117;-74
2023/09/25 09:18:21;;;;;;;6.32;3.58;;;;;;;;;;5119960;27;20059;-74
2023/09/25 09:20:48;;;;;;;4.80;3.60;;;;;;;;;;5115103;27;20051;-74
2023/09/25 09:23:17;;;;;;;5.45;3.65;;;;;;;;;;5134180;27;20108;-74
2023/09/25 09:25:47;;;;;;;5.00;3.90;;;;;;;;;;5131898;27;20043;-75
2023/09/25 09:28:13;;;;;;;5.05;3.55;;;;;;;;;;5122284;27;20543;-75
2023/09/25 09:30:41;;;;;;;5.35;3.65;;;;;;;;;;5114835;27;20078;-74
2023/09/25 09:33:10;;;;;;;4.93;3.85;;;;;;;;;;5115232;27;20049;-74
2023/09/25 09:35:36;;;;;;;4.95;3.67;;;;;;;;;;5125632;27;20043;-74
2023/09/25 09:38:04;;;;;;;5.70;3.70;;;;;;;;;;5134293;27;20489;-75
2023/09/25 09:40:30;;;;;;;5.03;3.70;;;;;;;;;;5135567;27;20070;-75
2023/09/25 09:42:56;;;;;;;4.32;3.50;;;;;;;;;;5130994;27;20122;-74
2023/09/25 09:45:23;;;;;;;5.15;3.50;;;;;;;;;;5135596;27;20442;-75
2023/09/25 09:47:50;;;;;;;5.00;3.67;;;;;;;;;;5130090;27;20034;-74
2023/09/25 09:50:21;;;;;;;5.60;3.90;;;;;;;;;;5114913;27;20047;-74
2023/09/25 09:52:47;;;;;;;7.15;4.10;;;;;;;;;;5120443;27;20051;-74
2023/09/25 09:55:14;;;;;;;5.47;3.85;;;;;;;;;;5133937;27;20129;-75
2023/09/25 09:57:40;;;;;;;6.63;4.00;;;;;;;;;;5132410;27;20081;-75
2023/09/25 10:00:07;;;;;;;5.88;3.78;;;;;;;;;;5153835;27;20035;-75
2023/09/25 10:02:34;;;;;;;6.25;3.88;;;;;;;;;;5130467;27;20042;-74
2023/09/25 10:05:00;;;;;;;6.47;4.43;;;;;;;;;;5131765;27;20389;-74
2023/09/25 10:07:27;;;;;;;5.75;3.90;;;;;;;;;;5133542;27;20054;-74
2023/09/25 10:09:57;;;;;;;7.20;4.05;;;;;;;;;;5133102;27;20054;-75
2023/09/25 10:12:42;;;;;;;5.05;3.80;;;;;;;;;;5135411;27;20129;-75
2023/09/25 10:15:09;;;;;;;6.00;4.10;;;;;;;;;;5133460;27;20049;-74
2023/09/25 10:17:39;;;;;;;8.55;4.00;;;;;;;;;;5122457;27;20047;-75
2023/09/25 10:20:07;;;;;;;6.80;4.15;;;;;;;;;;5132548;27;20091;-74
2023/09/25 10:22:33;;;;;;;5.60;3.83;;;;;;;;;;5132321;27;20050;-75
2023/09/25 10:25:05;;;;;;;7.97;3.83;;;;;;;;;;5116975;28;20061;-74
2023/09/25 10:27:31;;;;;;;9.73;4.40;;;;;;;;;;5148101;27;20042;-75
2023/09/25 10:30:14;;;;;;;7.55;4.15;;;;;;;;;;5133815;27;20103;-74
2023/09/25 10:32:50;;;;;;;6.30;4.30;;;;;;;;;;5135532;27;20507;-74
2023/09/25 10:35:35;;;;;;;5.93;3.85;;;;;;;;;;5132543;27;20420;-74
2023/09/25 10:38:19;;;;;;;9.63;4.32;;;;;;;;;;5124213;27;20510;-75
2023/09/25 10:40:46;;;;;;;5.45;3.90;;;;;;;;;;5147169;27;20113;-75
2023/09/25 10:43:12;;;;;;;7.72;4.10;;;;;;;;;;5133552;27;20064;-75
2023/09/25 10:45:39;;;;;;;4.70;4.05;;;;;;;;;;5137316;27;20049;-75
2023/09/25 10:48:05;;;;;;;6.85;4.55;;;;;;;;;;5133439;27;20050;-74
2023/09/25 10:50:37;;;;;;;6.65;4.18;;;;;;;;;;5142254;27;20042;-75
2023/09/25 10:53:06;;;;;;;7.37;3.97;;;;;;;;;;5128166;27;20129;-75
2023/09/25 10:55:33;;;;;;;12.32;4.78;;;;;;;;;;5125749;27;20043;-75
2023/09/25 10:58:00;;;;;;;5.72;3.70;;;;;;;;;;5140674;27;22602;-75
2023/09/25 11:00:27;;;;;;;8.13;4.22;;;;;;;;;;5131350;27;20069;-74
2023/09/25 11:02:53;;;;;;;7.32;4.38;;;;;;;;;;5156124;27;20180;-76
2023/09/25 11:05:21;;;;;;;5.13;3.90;;;;;;;;;;5147829;27;20041;-75
2023/09/25 11:07:47;;;;;;;7.97;4.20;;;;;;;;;;5132662;27;20046;-75
2023/09/25 11:10:16;;;;;;;8.60;4.43;;;;;;;;;;5122082;27;20035;-76
2023/09/25 11:12:47;;;;;;;6.95;4.32;;;;;;;;;;5144951;27;20134;-76
2023/09/25 11:15:13;;;;;;;6.70;4.35;;;;;;;;;;5141789;27;20046;-75
2023/09/25 11:17:39;;;;;;;6.55;4.00;;;;;;;;;;5130084;27;20039;-75
2023/09/25 11:20:18;;;;;;;8.30;4.40;;;;;;;;;;5134699;27;20055;-75
2023/09/25 11:22:44;;;;;;;8.68;5.00;;;;;;;;;;5132228;27;20054;-74
2023/09/25 11:25:16;;;;;;;7.20;4.60;;;;;;;;;;5146089;27;20070;-75
2023/09/25 11:27:52;;;;;;;6.47;5.00;;;;;;;;;;5136423;27;20115;-75
2023/09/25 11:30:18;;;;;;;6.55;4.72;;;;;;;;;;5132593;27;20058;-76
2023/09/25 11:32:44;;;;;;;7.05;5.00;;;;;;;;;;5128344;27;20134;-77
2023/09/25 11:35:13;;;;;;;9.77;4.45;;;;;;;;;;5154283;27;20087;-77
2023/09/25 11:38:00;;;;;;;7.95;4.53;;;;;;;;;;5145767;27;20050;-76
2023/09/25 11:40:26;;;;;;;7.60;5.03;;;;;;;;;;5127398;27;20489;-77
2023/09/25 11:42:52;;;;;;;7.18;4.80;;;;;;;;;;5128098;27;20039;-76
2023/09/25 11:45:19;;;;;;;6.50;4.90;;;;;;;;;;5150579;27;20034;-77
2023/09/25 11:47:45;;;;;;;7.10;4.70;;;;;;;;;;5135829;27;20043;-77
2023/09/25 11:50:13;;;;;;;7.20;5.00;;;;;;;;;;5121272;27;20054;-76
2023/09/25 11:52:41;;;;;;;6.57;4.90;;;;;;;;;;5136554;27;20042;-76
2023/09/25 11:55:09;;;;;;;7.38;4.70;;;;;;;;;;5155299;27;20110;-76
2023/09/25 11:57:36;;;;;;;9.32;5.15;;;;;;;;;;5153423;27;20512;-76
2023/09/25 12:00:04;;;;;;;7.07;5.20;;;;;;;;;;5137547;27;20478;-76
2023/09/25 12:02:31;;;;;;;6.72;4.55;;;;;;;;;;5141676;27;20072;-77
2023/09/25 12:04:57;;;;;;;8.90;5.70;;;;;;;;;;5135595;27;20042;-76
2023/09/25 12:07:23;;;;;;;7.55;5.13;;;;;;;;;;5123177;27;20057;-74
2023/09/25 12:09:52;;;;;;;8.30;5.25;;;;;;;;;;5140209;27;20042;-77
2023/09/25 12:12:18;;;;;;;8.25;4.97;;;;;;;;;;5148823;27;20043;-77
2023/09/25 12:14:44;;;;;;;6.82;4.90;;;;;;;;;;5147274;27;20125;-77
2023/09/25 12:17:12;;;;;;;9.43;5.10;;;;;;;;;;5150168;27;20035;-78
2023/09/25 12:19:39;;;;;;;9.27;4.78;;;;;;;;;;5143339;27;20297;-76
2023/09/25 12:22:05;;;;;;;11.63;5.43;;;;;;;;;;5120779;27;20078;-77
2023/09/25 12:24:31;;;;;;;9.52;5.78;;;;;;;;;;5127881;27;20466;-77
2023/09/25 12:26:57;;;;;;;6.18;4.80;;;;;;;;;;5124887;27;20378;-77
2023/09/25 12:29:23;;;;;;;9.50;5.10;;;;;;;;;;5142994;27;20039;-77
2023/09/25 12:31:49;;;;;;;7.22;5.13;;;;;;;;;;5142069;27;20043;-77
2023/09/25 12:34:16;;;;;;;8.43;5.18;;;;;;;;;;5123395;27;20047;-76
2023/09/25 12:36:42;;;;;;;8.35;5.80;;;;;;;;;;5121321;27;20170;-76
2023/09/25 12:39:08;;;;;;;7.25;5.40;;;;;;;;;;5132596;27;20043;-75
2023/09/25 12:41:35;;;;;;;11.68;5.95;;;;;;;;;;5124373;27;20150;-76
2023/09/25 12:44:01;;;;;;;8.48;5.47;;;;;;;;;;5147708;27;20042;-76
2023/09/25 12:46:27;;;;;;;7.63;5.20;;;;;;;;;;5125544;27;20039;-76
2023/09/25 12:48:53;;;;;;;9.77;6.10;;;;;;;;;;5136380;27;20047;-76
2023/09/25 12:51:19;;;;;;;11.13;5.70;;;;;;;;;;5120735;27;20151;-75
2023/09/25 12:53:45;;;;;;;10.80;6.53;;;;;;;;;;5135434;27;20115;-75
2023/09/25 12:56:11;;;;;;;9.63;6.18;;;;;;;;;;5140353;27;20075;-76
2023/09/25 12:58:38;;;;;;;13.68;5.85;;;;;;;;;;5123392;27;20050;-76
2023/09/25 13:01:04;;;;;;;11.18;6.63;;;;;;;;;;5137024;27;20588;-75
2023/09/25 13:03:31;;;;;;;10.65;6.45;;;;;;;;;;5127835;27;20390;-75
2023/09/25 13:05:57;;;;;;;9.73;6.80;;;;;;;;;;5124954;27;20418;-75
2023/09/25 13:08:23;;;;;;;10.10;6.75;;;;;;;;;;5125101;27;20394;-75
2023/09/25 13:10:51;;;;;;;8.90;5.85;;;;;;;;;;5127390;27;20062;-74
2023/09/25 13:13:18;;;;;;;8.88;6.38;;;;;;;;;;5131220;27;20047;-76
2023/09/25 13:15:44;;;;;;;9.77;6.25;;;;;;;;;;5116193;27;20509;-75
2023/09/25 13:18:13;;;;;;;10.93;7.15;;;;;;;;;;5132601;27;20059;-74
2023/09/25 13:20:39;;;;;;;8.50;6.57;;;;;;;;;;5125321;27;20595;-75
2023/09/25 13:23:05;;;;;;;13.88;6.43;;;;;;;;;;5137759;27;20122;-74
2023/09/25 13:25:31;;;;;;;12.10;6.68;;;;;;;;;;5125388;27;20047;-74
2023/09/25 13:27:57;;;;;;;9.70;6.60;;;;;;;;;;5120334;27;20042;-75
2023/09/25 13:30:23;;;;;;;9.85;6.65;;;;;;;;;;5143940;27;20042;-72
2023/09/25 13:32:49;;;;;;;13.85;6.47;;;;;;;;;;5140216;27;20059;-80
2023/09/25 13:35:22;;;;;;;9.95;6.60;;;;;;;;;;5118842;27;20489;-77
2023/09/25 13:37:50;;;;;;;9.57;6.50;;;;;;;;;;5135111;27;20047;-80
2023/09/25 13:40:16;;;;;;;8.18;5.90;;;;;;;;;;5119145;27;20112;-78
2023/09/25 13:42:44;;;;;;;11.30;6.90;;;;;;;;;;5128461;27;20153;-73
2023/09/25 13:45:12;;;;;;;12.63;6.57;;;;;;;;;;5120578;27;20095;-74
2023/09/25 13:47:39;;;;;;;10.88;6.72;;;;;;;;;;5126339;27;20123;-76
2023/09/25 13:50:06;;;;;;;9.90;6.15;;;;;;;;;;5121642;27;20501;-75
2023/09/25 13:52:32;;;;;;;8.18;6.03;;;;;;;;;;5139271;27;20550;-76
2023/09/25 13:54:58;;;;;;;12.48;7.25;;;;;;;;;;5118347;27;20047;-75
2023/09/25 13:57:24;;;;;;;9.88;6.85;;;;;;;;;;5121945;27;20046;-77
2023/09/25 13:59:50;;;;;;;10.30;6.97;;;;;;;;;;5128238;27;20489;-77
2023/09/25 14:02:16;;;;;;;9.30;6.78;;;;;;;;;;5122312;27;20079;-74
2023/09/25 14:04:43;;;;;;;11.02;5.85;;;;;;;;;;5124563;27;20397;-75
2023/09/25 14:07:09;;;;;;;9.25;6.75;;;;;;;;;;5123199;27;20091;-75
2023/09/25 14:09:35;;;;;;;11.35;6.80;;;;;;;;;;5143773;27;20129;-75
2023/09/25 14:12:03;;;;;;;12.38;7.35;;;;;;;;;;5132637;27;20043;-75
2023/09/25 14:14:40;;;;;;;10.02;6.15;;;;;;;;;;5150799;27;20414;-75
2023/09/25 14:17:13;;;;;;;9.77;6.45;;;;;;;;;;5132191;27;20045;-75
2023/09/25 14:19:39;;;;;;;10.40;6.65;;;;;;;;;;5130764;27;20050;-75
2023/09/25 14:22:06;;;;;;;7.57;6.03;;;;;;;;;;5128258;27;20047;-75
2023/09/25 14:24:32;;;;;;;9.82;6.80;;;;;;;;;;5109477;28;20047;-75
2023/09/25 14:27:01;;;;;;;9.43;6.03;;;;;;;;;;5122529;28;20055;-75
2023/09/25 14:29:28;;;;;;;11.55;6.60;;;;;;;;;;5117131;28;20062;-75
2023/09/25 14:31:55;;;;;;;11.10;7.10;;;;;;;;;;5111190;28;20482;-75
2023/09/25 14:34:21;;;;;;;9.23;6.85;;;;;;;;;;5099912;27;20082;-75
2023/09/25 14:36:47;;;;;;;12.00;6.78;;;;;;;;;;5093791;28;20048;-75
2023/09/25 14:39:14;;;;;;;11.60;6.68;;;;;;;;;;5111077;28;20195;-75
2023/09/25 14:41:40;;;;;;;10.60;6.30;;;;;;;;;;5112706;28;20111;-74
2023/09/25 14:44:07;;;;;;;11.88;6.43;;;;;;;;;;5125521;28;20505;-75